Selah, Washington
Current Conditions -  °F | °C
As of 9:56 AM on Saturday 25 Oct 2014 (Local Time) from K1YT Reporting Station
Overcast Overcast  
Wind Chill: 10°   Ceiling: 3400
Heat Index: 10°   Visibility: 10mi
Dew Point:   Wind: 5mph
Humidity: 82%   Direction: 80°E
Pressure: 29.64"   Gusts: NA
Location:  46.65°N, 120.53°W
Report Text: K1YT 251656Z AUTO 08004KT 10SM FEW027 OVC034 10/07 A2964 RMK AO2 SLPNO T01010072
Loading
Personal Weather Stations






























Interactive Weather Map
Tropical Storm Tracking
New forecast layout! Learn more

10-Day Weather Forecast

Advertisements
Track Severe Weather on mobile